Terminal Aerodrome Forecast
Issued by NWS Wilmington, OH

Home | Current Version | Previous Version | Text Only | Print | Product List | Glossary On
Versions: 1 2 3 4 5 6 7 8 9 10 11 12 13 14
000
FTUS41 KILN 222340
TAFCMH
TAF
KCMH 222340Z 2300/2324 15004KT P6SM BKN150
     FM231100 14008KT P6SM VCSH OVC050
     FM231500 14009KT 4SM SHRA OVC015
     FM232100 18013KT P6SM VCSH OVC050
     FM232200 18013KT 4SM SHRA OVC025=

USA.gov is the U.S. government's official web portal to all federal, state and local government web resources and services.